Terminal Aerodrome Forecast
Issued by NWS

Home | Current Version | Previous Version | Graphics & Text | Print | Product List | Glossary Off
Versions: 1 2 3 4 5 6 7 8 9 10 11 12 13 14

000
FTUS43 KMPX 012320
TAFRWF
TAF
KRWF 012320Z 0200/0224 20010KT P6SM FEW100
     FM020600 24010KT P6SM SKC
     FM021600 32012G22KT P6SM SKC=

USA.gov is the U.S. government's official web portal to all federal, state and local government web resources and services.